Time;durP1;ratioP1;P1;durP2;ratioP2;P2;SDS_P1;SDS_P2;PMS_P1;PMS_P2;Temp;Humidity;BMP_temperature;BMP_pressure;BME280_temperature;BME280_humidity;BME280_pressure;Samples;Min_cycle;Max_cycle;Signal;HPM_P1;HPM_P2
2023/04/14 00:02:14;;;;;;;11.33;9.08;;;;;;;9.92;79.19;99587.26;1744785;82;21230;-56
2023/04/14 00:05:24;;;;;;;12.65;8.45;;;;;;;9.95;79.24;99591.48;1745365;82;21234;-57
2023/04/14 00:08:30;;;;;;;9.60;8.30;;;;;;;9.96;79.26;99584.96;1745381;82;21245;-58
2023/04/14 00:11:36;;;;;;;9.00;7.65;;;;;;;9.96;79.25;99583.09;1745229;82;21310;-58
2023/04/14 00:14:43;;;;;;;11.08;8.30;;;;;;;9.95;79.27;99578.67;1745251;82;21368;-58
2023/04/14 00:17:49;;;;;;;10.78;9.00;;;;;;;9.96;79.28;99579.50;1745326;82;21226;-59
2023/04/14 00:20:56;;;;;;;9.78;8.78;;;;;;;9.95;79.27;99582.77;1745374;82;21676;-58
2023/04/14 00:24:02;;;;;;;8.73;7.50;;;;;;;9.99;79.38;99587.34;1745332;82;21206;-57
2023/04/14 00:27:08;;;;;;;10.70;8.05;;;;;;;9.98;79.36;99586.48;1731381;82;21379;-58
2023/04/14 00:30:16;;;;;;;8.90;7.90;;;;;;;9.95;79.33;99588.23;1775144;80;21201;-57
2023/04/14 00:33:26;;;;;;;9.68;8.65;;;;;;;9.99;79.43;99596.37;1775095;80;21363;-57
2023/04/14 00:36:33;;;;;;;9.93;7.75;;;;;;;10.01;79.46;99602.50;1775113;81;21212;-58
2023/04/14 00:39:40;;;;;;;9.55;8.30;;;;;;;10.01;79.45;99599.77;1775186;81;21334;-58
2023/04/14 00:42:54;;;;;;;9.80;7.95;;;;;;;10.02;79.40;99597.89;1757524;81;21260;-57
2023/04/14 00:46:00;;;;;;;9.38;8.28;;;;;;;9.98;79.37;99600.16;1775316;81;21263;-56
2023/04/14 00:49:05;;;;;;;9.68;7.45;;;;;;;9.98;79.35;99607.50;1775209;81;21219;-57
2023/04/14 00:52:12;;;;;;;9.50;7.85;;;;;;;9.93;79.27;99607.22;1775102;81;21366;-58
2023/04/14 00:55:22;;;;;;;11.60;8.60;;;;;;;9.88;79.24;99618.73;1775198;81;21224;-57
2023/04/14 00:58:27;;;;;;;10.28;7.83;;;;;;;9.85;79.26;99614.16;1769028;81;21260;-57
2023/04/14 01:01:39;;;;;;;9.28;7.83;;;;;;;9.82;79.33;99618.64;1745254;82;21362;-57
2023/04/14 01:04:48;;;;;;;11.43;8.23;;;;;;;9.79;79.27;99622.61;1745285;82;21184;-56
2023/04/14 01:07:54;;;;;;;10.90;8.70;;;;;;;9.76;79.38;99628.45;1745451;82;21260;-57
2023/04/14 01:11:29;;;;;;;11.15;8.35;;;;;;;9.77;79.40;99625.19;1745267;82;21307;-57
2023/04/14 01:14:51;;;;;;;;;;;;;;;9.76;79.42;99631.70;1747799;82;21260;-57
2023/04/14 01:18:23;;;;;;;11.00;8.73;;;;;;;9.70;79.36;99633.83;1684891;84;20188;-57
2023/04/14 01:21:37;;;;;;;11.95;8.48;;;;;;;9.70;79.48;99633.83;1711513;83;21255;-56
2023/04/14 01:24:51;;;;;;;13.03;7.75;;;;;;;9.65;79.51;99637.13;1683564;83;21353;-56
2023/04/14 01:28:22;;;;;;;12.07;7.47;;;;;;;9.66;79.66;99627.88;1738878;82;21207;-58
2023/04/14 01:31:34;;;;;;;8.93;7.95;;;;;;;9.70;79.74;99628.36;1745097;82;21483;-57
2023/04/14 01:34:51;;;;;;;10.23;7.95;;;;;;;9.72;79.72;99627.66;1745130;81;21339;-56
2023/04/14 01:37:52;;;;;;;9.63;8.30;;;;;;;9.75;79.72;99628.11;1744337;81;21292;-57
2023/04/14 01:40:40;;;;;;;8.98;7.58;;;;;;;9.74;79.66;99622.32;1745241;82;21323;-56
2023/04/14 01:43:37;;;;;;;8.93;7.55;;;;;;;9.74;79.66;99629.16;1744738;82;21311;-58
2023/04/14 01:46:45;;;;;;;9.65;7.30;;;;;;;9.73;79.71;99618.41;1745120;82;21344;-57
2023/04/14 01:49:52;;;;;;;9.38;7.22;;;;;;;9.73;79.70;99613.81;1744792;82;21204;-58
2023/04/14 01:52:59;;;;;;;7.97;6.53;;;;;;;9.70;79.63;99622.39;1745197;82;21213;-57
2023/04/14 01:56:07;;;;;;;6.97;6.28;;;;;;;9.69;79.63;99623.41;1745146;82;21268;-57
2023/04/14 01:59:13;;;;;;;9.88;6.90;;;;;;;9.69;79.71;99637.06;1744267;82;21193;-56
2023/04/14 02:02:19;;;;;;;8.50;6.70;;;;;;;9.67;79.64;99636.40;1746107;81;21196;-57
2023/04/14 02:05:28;;;;;;;8.00;6.00;;;;;;;9.63;79.67;99641.92;1738421;82;21209;-58
2023/04/14 02:08:36;;;;;;;9.35;7.03;;;;;;;9.65;79.78;99640.38;1735742;82;21216;-56
2023/04/14 02:11:43;;;;;;;9.48;6.97;;;;;;;9.65;79.76;99652.67;1735913;81;21354;-57
2023/04/14 02:14:50;;;;;;;8.13;6.95;;;;;;;9.63;79.77;99654.22;1735464;81;21249;-56
2023/04/14 02:17:57;;;;;;;10.40;6.62;;;;;;;9.61;79.78;99650.82;1735606;82;21248;-56
2023/04/14 02:21:05;;;;;;;8.08;6.92;;;;;;;9.63;79.84;99649.27;1735753;82;21193;-57
2023/04/14 02:24:13;;;;;;;7.28;5.97;;;;;;;9.65;79.86;99652.16;1735805;81;21201;-57
2023/04/14 02:27:24;;;;;;;8.78;6.30;;;;;;;9.64;79.85;99653.17;1735734;82;21209;-57
2023/04/14 02:30:36;;;;;;;7.42;5.85;;;;;;;9.67;79.93;99657.44;1731847;82;21225;-58
2023/04/14 02:33:44;;;;;;;8.80;6.45;;;;;;;9.72;79.99;99661.28;1735613;82;21185;-57
2023/04/14 02:36:59;;;;;;;7.83;6.42;;;;;;;9.73;79.97;99656.67;1735913;82;21236;-56
2023/04/14 02:40:11;;;;;;;9.03;6.58;;;;;;;9.72;79.90;99661.28;1735858;81;21335;-56
2023/04/14 02:43:36;;;;;;;9.38;6.15;;;;;;;9.71;79.92;99662.33;1735905;82;21204;-57
2023/04/14 02:46:49;;;;;;;9.80;6.92;;;;;;;9.72;79.99;99658.55;1735843;82;21216;-57
2023/04/14 02:49:56;;;;;;;9.20;6.67;;;;;;;9.75;79.96;99669.64;1740922;81;21318;-57
2023/04/14 02:53:04;;;;;;;8.38;6.53;;;;;;;9.73;79.90;99663.51;1739790;81;21268;-56
2023/04/14 02:56:11;;;;;;;8.35;6.42;;;;;;;9.72;79.86;99662.65;1722048;82;21267;-57
2023/04/14 02:59:19;;;;;;;9.85;6.50;;;;;;;9.73;79.90;99667.10;1728404;82;21240;-57
2023/04/14 03:02:28;;;;;;;8.35;6.50;;;;;;;9.75;79.94;99672.38;1760060;80;21436;-57
2023/04/14 03:05:35;;;;;;;7.22;6.10;;;;;;;9.75;79.96;99683.31;1771987;80;21350;-57
2023/04/14 03:08:42;;;;;;;8.10;6.35;;;;;;;9.79;80.02;99681.88;1777950;80;21330;-58
2023/04/14 03:11:51;;;;;;;7.78;6.40;;;;;;;9.78;79.92;99683.79;1777912;80;21433;-57
2023/04/14 03:14:58;;;;;;;7.67;6.28;;;;;;;9.76;79.82;99690.45;1777857;80;21252;-57
2023/04/14 03:18:05;;;;;;;8.60;6.35;;;;;;;9.72;79.85;99689.98;1777982;80;21282;-56
2023/04/14 03:21:12;;;;;;;8.93;7.22;;;;;;;9.67;79.83;99689.69;1750031;80;21279;-57
2023/04/14 03:24:23;;;;;;;10.32;7.55;;;;;;;9.67;79.81;99697.06;1778071;80;21352;-57
2023/04/14 03:27:30;;;;;;;8.05;7.22;;;;;;;9.62;79.77;99700.36;1777988;79;21208;-57
2023/04/14 03:30:40;;;;;;;10.30;7.53;;;;;;;9.62;79.86;99707.69;1777919;80;21661;-57
2023/04/14 03:33:45;;;;;;;9.15;7.62;;;;;;;9.57;79.79;99707.40;1777765;80;21258;-57
2023/04/14 03:36:53;;;;;;;12.75;7.78;;;;;;;9.53;79.85;99704.18;1777949;80;21468;-57
2023/04/14 03:40:04;;;;;;;11.15;7.90;;;;;;;9.55;79.95;99703.48;1755177;80;21208;-57
2023/04/14 03:43:13;;;;;;;11.78;8.13;;;;;;;9.54;79.91;99707.27;1777966;79;21792;-57
2023/04/14 03:46:25;;;;;;;;;;;;;;;9.48;79.85;99714.81;1780218;79;21204;-57
2023/04/14 03:49:32;;;;;;;9.70;7.83;;;;;;;9.40;79.79;99717.64;1777545;80;20218;-57
2023/04/14 03:52:39;;;;;;;10.15;7.83;;;;;;;9.37;79.92;99728.91;1777972;80;21259;-57
2023/04/14 03:55:45;;;;;;;11.70;9.25;;;;;;;9.39;80.05;99726.86;1777907;80;21236;-56
2023/04/14 03:58:54;;;;;;;12.58;8.85;;;;;;;9.38;80.09;99727.04;1778052;80;21188;-57
2023/04/14 04:02:02;;;;;;;10.88;8.33;;;;;;;9.39;80.04;99729.59;1769058;80;21323;-59
2023/04/14 04:05:10;;;;;;;10.20;8.13;;;;;;;9.34;79.99;99730.65;1740548;82;21350;-58
2023/04/14 04:08:17;;;;;;;10.72;8.65;;;;;;;9.36;80.04;99734.56;1740464;81;21350;-57
2023/04/14 04:11:24;;;;;;;11.12;8.30;;;;;;;9.39;80.09;99739.14;1740519;82;21351;-58
2023/04/14 04:14:31;;;;;;;11.20;8.20;;;;;;;9.44;80.22;99729.89;1740494;82;21268;-57
2023/04/14 04:17:38;;;;;;;11.43;8.50;;;;;;;9.52;80.25;99738.02;1740662;82;21195;-57
2023/04/14 04:20:45;;;;;;;9.05;7.70;;;;;;;9.54;80.19;99739.19;1723292;82;21335;-58
2023/04/14 04:23:57;;;;;;;16.27;8.68;;;;;;;9.58;80.22;99741.87;1740555;82;21153;-57
2023/04/14 04:27:04;;;;;;;11.88;9.13;;;;;;;9.61;80.23;99742.36;1740480;81;21256;-57
2023/04/14 04:30:15;;;;;;;23.55;10.40;;;;;;;9.57;80.05;99752.48;1733251;82;21212;-58
2023/04/14 04:33:21;;;;;;;11.97;8.70;;;;;;;9.57;80.13;99748.38;1740434;82;21501;-57
2023/04/14 04:36:30;;;;;;;12.85;8.48;;;;;;;9.61;80.21;99755.19;1736441;82;21225;-57
2023/04/14 04:39:37;;;;;;;12.80;7.70;;;;;;;9.60;80.14;99755.70;1736297;82;21358;-57
2023/04/14 04:42:50;;;;;;;10.48;8.88;;;;;;;9.63;80.20;99757.20;1734762;82;21264;-57
2023/04/14 04:46:50;;;;;;;11.90;8.60;;;;;;;9.63;80.11;99766.77;1711180;82;21738;-58
2023/04/14 04:49:56;;;;;;;10.38;7.85;;;;;;;9.60;80.07;99763.89;1711964;82;21165;-57
2023/04/14 04:53:02;;;;;;;11.55;8.93;;;;;;;9.68;80.26;99761.09;1729773;80;21686;-57
2023/04/14 04:56:08;;;;;;;12.00;8.58;;;;;;;9.74;80.21;99765.80;1761588;80;21745;-59
2023/04/14 04:59:17;;;;;;;12.47;8.45;;;;;;;9.77;80.19;99768.67;1767035;80;21347;-58
2023/04/14 05:02:25;;;;;;;11.38;7.92;;;;;;;9.79;80.17;99772.08;1723434;81;21257;-56
2023/04/14 05:05:32;;;;;;;12.55;8.70;;;;;;;9.79;80.14;99775.67;1722303;81;21267;-59
2023/04/14 05:08:40;;;;;;;12.37;9.08;;;;;;;9.83;80.18;99770.69;1735274;80;21216;-58
2023/04/14 05:11:47;;;;;;;9.90;7.90;;;;;;;9.85;80.20;99768.59;1746866;80;21734;-57
2023/04/14 05:14:54;;;;;;;12.05;8.20;;;;;;;9.82;80.05;99773.07;1715215;81;21209;-59
2023/04/14 05:18:01;;;;;;;13.08;8.53;;;;;;;9.83;80.16;99767.41;1677562;83;21761;-57
2023/04/14 05:21:12;;;;;;;12.25;8.68;;;;;;;9.87;80.13;99787.03;1661382;83;21213;-56
2023/04/14 05:24:17;;;;;;;11.65;8.90;;;;;;;9.84;80.08;99777.84;1667304;83;21224;-57
2023/04/14 05:27:22;;;;;;;11.40;8.70;;;;;;;9.86;80.16;99786.17;1687824;82;21238;-59
2023/04/14 05:30:28;;;;;;;11.65;8.18;;;;;;;9.91;80.29;99786.47;1681995;83;21373;-57
2023/04/14 05:33:35;;;;;;;12.28;8.78;;;;;;;10.00;80.34;99785.38;1679876;85;21236;-56
2023/04/14 05:36:41;;;;;;;13.15;8.78;;;;;;;10.02;80.21;99785.19;1743846;81;21605;-57
2023/04/14 05:39:48;;;;;;;10.60;8.43;;;;;;;10.02;80.16;99792.84;1733817;82;21805;-56
2023/04/14 05:42:55;;;;;;;12.63;9.03;;;;;;;10.05;80.18;99792.47;1746803;81;21768;-56
2023/04/14 05:46:04;;;;;;;12.53;8.63;;;;;;;10.10;80.21;99792.80;1728287;80;21840;-56
2023/04/14 05:49:10;;;;;;;12.70;8.48;;;;;;;10.18;80.28;99803.66;1714618;83;21289;-55
2023/04/14 05:52:16;;;;;;;10.43;7.85;;;;;;;10.22;80.15;99803.63;1743229;81;21207;-55
2023/04/14 05:55:22;;;;;;;12.58;9.03;;;;;;;10.21;80.12;99808.75;1745564;81;21195;-56
2023/04/14 05:58:28;;;;;;;12.00;8.75;;;;;;;10.18;80.03;99809.13;1759142;79;21308;-56
2023/04/14 06:01:34;;;;;;;13.98;10.00;;;;;;;10.19;80.11;99813.58;1745905;80;21816;-56
2023/04/14 06:04:41;;;;;;;12.98;9.13;;;;;;;10.20;80.13;99816.63;1740447;80;21212;-56
2023/04/14 06:07:47;;;;;;;13.45;9.08;;;;;;;10.19;80.10;99820.42;1781320;79;21204;-57
2023/04/14 06:10:54;;;;;;;12.80;9.33;;;;;;;10.21;80.22;99822.42;1796705;79;21189;-56
2023/04/14 06:14:01;;;;;;;13.72;9.35;;;;;;;10.25;80.24;99827.01;1782351;79;21831;-55
2023/04/14 06:17:11;;;;;;;13.60;9.08;;;;;;;10.24;80.17;99829.42;1798591;78;21204;-56
2023/04/14 06:20:20;;;;;;;12.50;7.62;;;;;;;10.24;80.26;99826.15;1779559;78;21179;-56
2023/04/14 06:23:27;;;;;;;13.58;9.58;;;;;;;10.28;80.22;99826.63;1786499;79;21302;-56
2023/04/14 06:26:33;;;;;;;11.15;9.28;;;;;;;10.24;80.17;99834.89;1749273;81;21192;-56
2023/04/14 06:29:39;;;;;;;12.75;9.15;;;;;;;10.27;80.23;99838.11;1779233;79;21192;-55
2023/04/14 06:32:50;;;;;;;15.68;10.28;;;;;;;10.33;80.38;99841.97;1778435;80;21280;-56
2023/04/14 06:35:57;;;;;;;11.63;9.60;;;;;;;10.34;80.21;99843.14;1776732;80;21745;-56
2023/04/14 06:39:09;;;;;;;17.40;10.20;;;;;;;10.29;80.19;99844.22;1777277;79;21593;-55
2023/04/14 06:42:16;;;;;;;13.55;10.38;;;;;;;10.31;80.26;99849.00;1775342;80;22045;-56
2023/04/14 06:45:27;;;;;;;16.12;10.15;;;;;;;10.41;80.45;99849.58;1776054;80;21240;-56
2023/04/14 06:48:45;;;;;;;14.98;10.32;;;;;;;10.54;80.58;99851.66;1775687;80;21534;-56
2023/04/14 06:51:56;;;;;;;13.88;9.83;;;;;;;10.54;80.28;99851.13;1776374;80;21219;-56
2023/04/14 06:55:02;;;;;;;14.13;10.65;;;;;;;10.49;80.16;99857.70;1777006;80;21559;-55
2023/04/14 06:58:16;;;;;;;12.82;9.68;;;;;;;10.47;80.09;99864.38;1775799;80;21538;-57
2023/04/14 07:01:24;;;;;;;13.85;9.15;;;;;;;10.45;80.07;99869.19;1774810;80;21959;-57
2023/04/14 07:04:31;;;;;;;13.85;9.70;;;;;;;10.47;80.16;99873.95;1775365;80;21817;-55
2023/04/14 07:07:45;;;;;;;15.72;10.48;;;;;;;10.45;80.11;99872.78;1730456;82;21189;-56
2023/04/14 07:10:51;;;;;;;13.13;9.85;;;;;;;10.45;80.11;99878.25;1728066;81;22114;-54
2023/04/14 07:13:59;;;;;;;13.15;10.35;;;;;;;10.48;80.18;99884.72;1732682;82;21271;-57
2023/04/14 07:17:07;;;;;;;17.15;10.03;;;;;;;10.48;80.18;99887.99;1734558;81;21261;-55
2023/04/14 07:20:13;;;;;;;14.85;10.10;;;;;;;10.49;80.20;99901.48;1731282;81;21786;-55
2023/04/14 07:23:24;;;;;;;14.20;10.60;;;;;;;10.49;80.24;99896.02;1694340;83;21256;-55
2023/04/14 07:26:27;;;;;;;14.33;10.28;;;;;;;10.52;80.29;99896.14;1700073;83;21237;-56
2023/04/14 07:29:32;;;;;;;16.00;10.38;;;;;;;10.52;80.32;99894.27;1705311;83;21547;-56
2023/04/14 07:32:38;;;;;;;16.93;11.43;;;;;;;10.55;80.38;99907.57;1692117;82;21244;-56
2023/04/14 07:35:46;;;;;;;15.03;11.57;;;;;;;10.59;80.40;99902.58;1681613;83;21984;-57
2023/04/14 07:38:58;;;;;;;16.10;11.97;;;;;;;10.68;80.46;99904.69;1705912;83;21558;-56
2023/04/14 07:42:05;;;;;;;14.23;10.95;;;;;;;10.70;80.43;99895.78;1693827;82;22060;-55
2023/04/14 07:45:13;;;;;;;14.45;11.68;;;;;;;10.74;80.44;99903.94;1691101;84;21750;-56
2023/04/14 07:48:21;;;;;;;14.90;11.12;;;;;;;10.80;80.43;99904.57;1711177;83;21256;-55
2023/04/14 07:51:28;;;;;;;14.75;10.95;;;;;;;10.89;80.50;99909.77;1716059;82;21316;-56
2023/04/14 07:54:33;;;;;;;14.73;10.50;;;;;;;10.92;80.31;99916.23;1742072;82;21200;-56
2023/04/14 07:57:41;;;;;;;13.98;10.72;;;;;;;10.93;80.27;99922.02;1741684;80;21219;-55
2023/04/14 08:00:48;;;;;;;13.70;10.65;;;;;;;11.02;80.33;99909.92;1742228;81;21738;-57
2023/04/14 08:03:53;;;;;;;15.85;10.50;;;;;;;11.06;80.27;99913.13;1721946;82;21777;-57
2023/04/14 08:07:00;;;;;;;17.70;11.40;;;;;;;11.16;80.33;99921.92;1718459;79;21198;-57
2023/04/14 08:10:06;;;;;;;15.45;10.25;;;;;;;11.22;80.26;99921.14;1726849;82;21202;-57
2023/04/14 08:13:12;;;;;;;18.02;10.93;;;;;;;11.24;80.17;99932.23;1730599;82;21237;-57
2023/04/14 08:16:18;;;;;;;14.28;10.05;;;;;;;11.21;79.97;99941.38;1729513;82;21225;-57
2023/04/14 08:19:24;;;;;;;15.10;10.50;;;;;;;11.24;79.98;99935.52;1737233;82;21197;-57
2023/04/14 08:22:30;;;;;;;18.35;10.78;;;;;;;11.30;80.12;99938.85;1736799;82;21259;-57
2023/04/14 08:25:37;;;;;;;12.98;10.70;;;;;;;11.38;80.15;99948.34;1729735;82;21738;-56
2023/04/14 08:28:45;;;;;;;14.43;10.90;;;;;;;11.43;80.09;99949.99;1734148;82;21232;-57
2023/04/14 08:31:53;;;;;;;17.65;10.68;;;;;;;11.39;79.87;99945.91;1719013;82;21793;-56
2023/04/14 08:35:00;;;;;;;19.70;12.75;;;;;;;11.36;79.85;99952.64;1732228;82;21229;-57
2023/04/14 08:38:08;;;;;;;16.17;10.75;;;;;;;11.41;79.98;99957.03;1696444;81;21555;-57
2023/04/14 08:41:15;;;;;;;17.05;11.12;;;;;;;11.41;79.89;99950.19;1716526;81;22138;-56
2023/04/14 08:44:20;;;;;;;15.08;10.32;;;;;;;11.39;79.77;99960.98;1718347;82;21211;-55
2023/04/14 08:47:26;;;;;;;15.85;10.10;;;;;;;11.30;79.66;99960.77;1729325;81;21247;-56
2023/04/14 08:50:38;;;;;;;17.27;10.43;;;;;;;11.22;79.60;99967.73;1721785;82;21216;-56
2023/04/14 08:53:47;;;;;;;20.50;10.98;;;;;;;11.16;79.61;99969.86;1714251;82;21197;-56
2023/04/14 08:56:54;;;;;;;16.42;11.30;;;;;;;11.11;79.62;99968.20;1730977;81;21580;-55
2023/04/14 09:00:03;;;;;;;16.05;11.70;;;;;;;11.06;79.62;99973.39;1708115;82;21245;-55
2023/04/14 09:03:12;;;;;;;19.77;11.08;;;;;;;11.02;79.65;99983.87;1735789;82;21222;-55
2023/04/14 09:06:19;;;;;;;17.90;11.15;;;;;;;10.99;79.64;99978.77;1717357;82;21201;-55
2023/04/14 09:09:25;;;;;;;13.48;10.60;;;;;;;11.06;79.85;99990.69;1730807;80;21248;-55
2023/04/14 09:12:33;;;;;;;16.27;10.00;;;;;;;11.14;79.81;99989.73;1739217;82;21558;-55
2023/04/14 09:15:40;;;;;;;15.90;9.80;;;;;;;11.22;79.86;99995.13;1738334;82;21255;-56
2023/04/14 09:18:47;;;;;;;13.03;9.10;;;;;;;11.28;79.79;99992.98;1751022;79;21149;-56
2023/04/14 09:21:54;;;;;;;16.30;10.10;;;;;;;11.41;79.97;99989.06;1777083;79;21200;-56
2023/04/14 09:25:01;;;;;;;19.27;10.15;;;;;;;11.53;79.90;99988.38;1777774;80;21598;-55
2023/04/14 09:28:06;;;;;;;14.18;9.45;;;;;;;11.56;79.60;99985.80;1775835;79;21224;-57
2023/04/14 09:31:12;;;;;;;20.43;10.15;;;;;;;11.55;79.51;99984.94;1776176;78;21208;-57
2023/04/14 09:34:25;;;;;;;13.62;10.03;;;;;;;11.60;79.54;99981.61;1768050;80;21183;-57
2023/04/14 09:37:32;;;;;;;11.70;8.93;;;;;;;11.71;79.68;99986.63;1758935;79;21832;-56
2023/04/14 09:40:40;;;;;;;12.45;8.93;;;;;;;11.79;79.63;99992.00;1748422;82;21222;-57
2023/04/14 09:43:47;;;;;;;13.15;8.55;;;;;;;11.80;79.39;100001.41;1749677;82;21355;-58
2023/04/14 09:47:08;;;;;;;14.33;9.63;;;;;;;11.73;79.31;100005.95;1750248;80;21193;-58
2023/04/14 09:50:15;;;;;;;11.88;7.67;;;;;;;11.75;79.25;100009.87;1746483;80;21841;-58
2023/04/14 09:53:21;;;;;;;13.68;8.83;;;;;;;11.77;79.25;100014.65;1741604;81;21200;-59
2023/04/14 09:56:28;;;;;;;13.15;7.72;;;;;;;11.81;79.14;100018.72;1767681;79;21255;-57
2023/04/14 09:59:43;;;;;;;8.95;7.20;;;;;;;11.82;79.05;100021.78;1754881;80;21188;-57
2023/04/14 10:03:02;;;;;;;12.68;8.30;;;;;;;11.81;78.98;100017.34;1772355;79;21196;-58
2023/04/14 10:06:09;;;;;;;10.65;7.78;;;;;;;11.82;78.92;100027.27;1762975;80;21740;-57
2023/04/14 10:09:15;;;;;;;12.75;7.55;;;;;;;11.92;79.04;100028.65;1746675;80;21244;-58
2023/04/14 10:12:21;;;;;;;10.48;7.10;;;;;;;11.99;78.98;100030.10;1777200;79;21200;-57
2023/04/14 10:15:28;;;;;;;10.40;7.53;;;;;;;12.10;79.10;100028.22;1774251;79;21252;-58
2023/04/14 10:18:34;;;;;;;9.73;6.97;;;;;;;12.10;78.94;100046.05;1771600;79;21185;-58
2023/04/14 10:21:44;;;;;;;8.50;6.53;;;;;;;11.97;78.55;100044.56;1792135;78;21213;-58
2023/04/14 10:24:50;;;;;;;8.95;6.62;;;;;;;11.83;78.40;100055.01;1798984;79;21316;-58
2023/04/14 10:27:58;;;;;;;11.78;7.40;;;;;;;11.73;78.46;100061.33;1798332;78;21177;-58
2023/04/14 10:31:07;;;;;;;11.20;6.72;;;;;;;11.72;78.69;100059.10;1781752;79;21765;-58
2023/04/14 10:34:18;;;;;;;8.78;6.92;;;;;;;11.76;78.80;100065.92;1777748;79;21490;-58
2023/04/14 10:37:24;;;;;;;11.03;7.20;;;;;;;11.80;78.86;100076.83;1787114;78;21239;-59
2023/04/14 10:40:29;;;;;;;11.57;7.30;;;;;;;11.81;78.71;100074.94;1774697;80;21216;-59
2023/04/14 10:43:37;;;;;;;9.95;6.58;;;;;;;11.74;78.47;100082.22;1775536;80;21188;-59
2023/04/14 10:46:55;;;;;;;12.33;6.62;;;;;;;11.63;78.43;100080.82;1777063;79;21612;-58
2023/04/14 10:50:05;;;;;;;9.30;7.00;;;;;;;11.50;78.33;100079.73;1737522;79;21194;-58
2023/04/14 10:53:13;;;;;;;12.45;6.47;;;;;;;11.46;78.41;100083.91;1774317;79;21223;-59
2023/04/14 10:56:20;;;;;;;9.23;6.17;;;;;;;11.40;78.42;100095.09;1779968;78;21236;-58
2023/04/14 10:59:28;;;;;;;10.13;5.62;;;;;;;11.39;78.41;100103.50;1779582;79;21247;-58
2023/04/14 11:02:41;;;;;;;8.43;6.20;;;;;;;11.26;78.29;100104.15;1779889;79;21192;-58
2023/04/14 11:05:51;;;;;;;9.35;6.12;;;;;;;11.22;78.39;100103.34;1780901;79;21567;-57
2023/04/14 11:09:02;;;;;;;10.30;6.15;;;;;;;11.18;78.46;100114.36;1756550;81;21249;-57
2023/04/14 11:12:31;;;;;;;16.65;6.62;;;;;;;11.27;78.72;100118.71;1755492;78;21264;-58
2023/04/14 11:16:04;;;;;;;8.25;6.12;;;;;;;11.30;78.63;100116.45;1731003;81;21189;-58
2023/04/14 11:19:14;;;;;;;10.70;6.65;;;;;;;11.32;78.59;100125.86;1764292;81;21267;-59
2023/04/14 11:22:19;;;;;;;9.63;5.55;;;;;;;11.29;78.53;100119.38;1734356;81;21205;-56
2023/04/14 11:25:26;;;;;;;7.53;6.08;;;;;;;11.30;78.54;100130.66;1709543;83;21208;-58
2023/04/14 11:28:45;;;;;;;9.48;5.95;;;;;;;11.28;78.57;100127.25;1718965;80;21260;-58
2023/04/14 11:31:52;;;;;;;8.00;4.83;;;;;;;11.26;78.48;100127.95;1704011;83;21198;-58
2023/04/14 11:34:58;;;;;;;8.10;5.08;;;;;;;11.22;78.51;100140.33;1707325;82;21213;-58
2023/04/14 11:38:05;;;;;;;8.05;5.47;;;;;;;11.18;78.35;100136.28;1689482;84;21831;-58
2023/04/14 11:41:10;;;;;;;7.80;5.12;;;;;;;11.07;78.24;100138.92;1694752;83;21231;-58
2023/04/14 11:44:16;;;;;;;6.12;4.87;;;;;;;11.03;78.23;100136.23;1722621;80;21199;-59
2023/04/14 11:47:27;;;;;;;6.40;4.75;;;;;;;11.04;78.30;100138.44;1734816;82;21236;-58
2023/04/14 11:50:40;;;;;;;7.10;4.60;;;;;;;11.14;78.51;100141.78;1727834;81;21262;-58
2023/04/14 11:53:42;;;;;;;6.45;4.58;;;;;;;11.17;78.39;100148.25;1721326;81;21265;-58
2023/04/14 11:56:49;;;;;;;6.45;4.00;;;;;;;11.17;78.33;100155.10;1709015;82;21248;-59
2023/04/14 11:59:54;;;;;;;7.83;4.87;;;;;;;11.22;78.47;100152.16;1740198;82;21208;-59
2023/04/14 12:03:01;;;;;;;10.10;5.28;;;;;;;11.28;78.40;100159.63;1739962;81;21192;-58
2023/04/14 12:06:07;;;;;;;8.50;4.25;;;;;;;11.25;78.13;100156.40;1739519;81;21172;-58
2023/04/14 12:09:15;;;;;;;9.03;4.60;;;;;;;11.14;77.95;100165.06;1744060;80;22081;-59
2023/04/14 12:12:27;;;;;;;8.48;4.65;;;;;;;11.07;77.92;100166.31;1746313;80;21208;-57
2023/04/14 12:15:33;;;;;;;9.83;4.83;;;;;;;11.03;77.96;100170.48;1764764;81;21236;-59
2023/04/14 12:18:44;;;;;;;6.97;4.70;;;;;;;10.97;77.94;100178.57;1762547;81;21193;-59
2023/04/14 12:21:52;;;;;;;6.05;4.55;;;;;;;11.00;78.16;100176.33;1764155;80;21579;-58
2023/04/14 12:25:00;;;;;;;8.88;4.85;;;;;;;11.05;78.18;100179.34;1756912;80;21574;-58
2023/04/14 12:28:09;;;;;;;7.28;5.10;;;;;;;11.14;78.23;100180.13;1765589;80;21386;-59
2023/04/14 12:31:14;;;;;;;10.43;6.60;;;;;;;11.17;78.18;100187.98;1764476;81;21256;-59
2023/04/14 12:34:24;;;;;;;13.95;6.80;;;;;;;11.24;78.26;100186.22;1764636;81;21173;-58
2023/04/14 12:37:32;;;;;;;8.63;5.80;;;;;;;11.31;78.19;100191.27;1745066;81;21758;-59
2023/04/14 12:40:50;;;;;;;8.48;5.55;;;;;;;11.30;77.96;100189.58;1746804;80;21628;-58
2023/04/14 12:43:56;;;;;;;9.00;5.17;;;;;;;11.25;77.75;100192.02;1738843;81;21227;-58
2023/04/14 12:47:04;;;;;;;12.75;6.60;;;;;;;11.23;77.81;100198.19;1707590;82;21288;-57
2023/04/14 12:50:32;;;;;;;10.55;6.62;;;;;;;11.19;77.65;100192.77;1707018;84;21516;-58
2023/04/14 12:53:40;;;;;;;8.90;4.97;;;;;;;11.17;77.70;100200.31;1704698;82;21269;-57
2023/04/14 12:56:49;;;;;;;10.68;6.35;;;;;;;11.12;77.57;100193.16;1705384;82;21229;-59
2023/04/14 12:59:55;;;;;;;8.35;5.45;;;;;;;11.08;77.62;100189.09;1697239;83;21746;-58
2023/04/14 13:03:01;;;;;;;10.72;6.25;;;;;;;11.02;77.56;100196.68;1703919;84;21770;-57
2023/04/14 13:06:08;;;;;;;10.95;6.08;;;;;;;10.96;77.46;100197.39;1705024;83;21328;-57
2023/04/14 13:09:15;;;;;;;15.48;11.38;;;;;;;10.88;77.51;100201.59;1735905;82;21172;-58
2023/04/14 13:12:21;;;;;;;53.00;33.18;;;;;;;10.84;77.49;100205.20;1741144;80;21267;-57
2023/04/14 13:15:27;;;;;;;8.35;5.62;;;;;;;10.81;77.57;100200.09;1776098;80;21172;-57
2023/04/14 13:18:35;;;;;;;9.30;5.53;;;;;;;10.82;77.63;100200.41;1764453;80;22046;-57
2023/04/14 13:21:42;;;;;;;13.13;6.40;;;;;;;10.83;77.56;100212.23;1765700;81;21204;-57
2023/04/14 13:24:48;;;;;;;9.63;6.30;;;;;;;10.75;77.50;100213.65;1770484;79;21573;-58
2023/04/14 13:27:58;;;;;;;8.30;5.85;;;;;;;10.68;77.46;100206.67;1781171;79;21263;-57
2023/04/14 13:31:06;;;;;;;7.37;5.47;;;;;;;10.71;77.66;100207.67;1750090;79;21785;-58
2023/04/14 13:34:11;;;;;;;10.10;4.92;;;;;;;10.80;77.75;100215.33;1748879;82;21795;-59
2023/04/14 13:37:17;;;;;;;7.60;5.00;;;;;;;10.83;77.73;100211.69;1748696;82;21213;-58
2023/04/14 13:40:24;;;;;;;12.18;6.30;;;;;;;10.87;77.70;100214.92;1748814;82;21316;-58
2023/04/14 13:43:32;;;;;;;9.53;5.35;;;;;;;10.82;77.48;100215.47;1774581;79;21200;-58
2023/04/14 13:46:40;;;;;;;9.43;5.25;;;;;;;10.79;77.35;100221.82;1799405;78;21209;-58
2023/04/14 13:49:45;;;;;;;8.08;5.10;;;;;;;10.73;77.32;100226.15;1800008;79;21236;-58
2023/04/14 13:52:54;;;;;;;11.55;6.25;;;;;;;10.72;77.44;100232.64;1740555;81;21228;-58
2023/04/14 13:55:59;;;;;;;10.58;5.45;;;;;;;10.77;77.54;100241.17;1749469;80;21243;-57
2023/04/14 13:59:04;;;;;;;5.87;4.50;;;;;;;10.79;77.48;100243.72;1772255;80;21208;-58
2023/04/14 14:02:10;;;;;;;7.87;5.00;;;;;;;10.77;77.40;100248.02;1766090;80;21800;-58
2023/04/14 14:05:18;;;;;;;11.75;4.62;;;;;;;10.76;77.42;100250.94;1778037;80;21224;-59
2023/04/14 14:08:25;;;;;;;6.33;4.72;;;;;;;10.72;77.36;100254.54;1765857;81;21205;-58
2023/04/14 14:11:31;;;;;;;8.00;5.37;;;;;;;10.66;77.23;100255.77;1770767;80;21200;-58
2023/04/14 14:14:37;;;;;;;8.03;4.62;;;;;;;10.64;77.31;100261.97;1775491;76;22058;-58
2023/04/14 14:17:43;;;;;;;4.50;3.52;;;;;;;10.58;77.24;100265.75;1768397;80;21221;-58
2023/04/14 14:20:51;;;;;;;6.95;4.40;;;;;;;10.52;77.18;100273.81;1768693;81;21169;-57
2023/04/14 14:23:56;;;;;;;6.08;3.33;;;;;;;10.43;77.08;100286.67;1768561;81;21582;-58
2023/04/14 14:27:05;;;;;;;8.73;4.08;;;;;;;10.41;77.20;100292.00;1768731;81;21570;-58
2023/04/14 14:30:10;;;;;;;6.55;3.10;;;;;;;10.36;77.12;100300.74;1768348;81;21193;-58
2023/04/14 14:33:19;;;;;;;6.78;3.52;;;;;;;10.36;77.25;100306.22;1760066;80;21185;-58
2023/04/14 14:36:25;;;;;;;7.15;4.20;;;;;;;10.36;77.30;100303.48;1740273;82;21634;-58
2023/04/14 14:39:34;;;;;;;5.05;3.17;;;;;;;10.38;77.25;100315.61;1740999;82;21216;-58